createdAt,value
2019-03-11T00:00:12.177Z,12.04
2019-03-11T00:02:41.947Z,12.13
2019-03-11T00:05:12.772Z,12.13
2019-03-11T00:07:42.145Z,12.02
2019-03-11T00:10:11.588Z,11.88
2019-03-11T00:12:40.951Z,12.00
2019-03-11T00:15:10.392Z,11.96
2019-03-11T00:17:39.757Z,11.95
2019-03-11T00:20:09.184Z,11.89
2019-03-11T00:22:38.610Z,11.82
2019-03-11T00:25:08.182Z,11.83
2019-03-11T00:27:37.549Z,11.87
2019-03-11T00:30:07.113Z,12.01
2019-03-11T00:32:36.557Z,12.06
2019-03-11T00:35:06.575Z,11.76
2019-03-11T00:37:35.911Z,11.88
2019-03-11T00:40:06.039Z,11.82
2019-03-11T00:42:35.407Z,11.66
2019-03-11T00:45:05.289Z,11.71
2019-03-11T00:47:34.648Z,11.49
2019-03-11T00:50:04.810Z,11.34
2019-03-11T00:52:34.275Z,11.00
2019-03-11T00:55:03.874Z,10.37
2019-03-11T00:57:33.338Z,10.57
2019-03-11T01:00:03.107Z,10.23
2019-03-11T01:02:32.526Z,9.60
2019-03-11T01:05:01.976Z,9.83
2019-03-11T01:07:31.307Z,8.84
2019-03-11T01:10:00.679Z,9.30
2019-03-11T01:12:30.081Z,10.31
2019-03-11T01:14:59.415Z,9.86
2019-03-11T01:17:28.824Z,8.76
2019-03-11T01:19:58.180Z,9.55
2019-03-11T01:22:27.685Z,9.81
2019-03-11T01:24:57.116Z,10.00
2019-03-11T01:27:26.528Z,9.37
2019-03-11T01:29:55.912Z,10.16
2019-03-11T01:32:25.260Z,9.46
2019-03-11T01:34:54.623Z,10.37
2019-03-11T01:37:24.001Z,9.01
2019-03-11T01:39:53.441Z,9.59
2019-03-11T01:42:22.877Z,9.38
2019-03-11T01:44:52.272Z,9.22
2019-03-11T01:47:21.625Z,9.25
2019-03-11T01:49:51.247Z,9.15
2019-03-11T01:52:20.612Z,7.75
2019-03-11T01:54:49.958Z,8.55
2019-03-11T01:57:19.299Z,7.86
2019-03-11T01:59:48.651Z,8.00
2019-03-11T02:02:18.024Z,8.19
2019-03-11T02:04:47.377Z,8.54
2019-03-11T02:07:16.733Z,8.46
2019-03-11T02:09:46.159Z,8.99
2019-03-11T02:12:15.492Z,7.52
2019-03-11T02:14:44.927Z,7.88
2019-03-11T02:17:14.313Z,9.08
2019-03-11T02:19:43.741Z,8.27
2019-03-11T02:22:13.098Z,8.01
2019-03-11T02:24:42.538Z,8.55
2019-03-11T02:27:11.964Z,8.89
2019-03-11T02:29:41.355Z,7.55
2019-03-11T02:32:10.722Z,7.43
2019-03-11T02:34:40.104Z,7.15
2019-03-11T02:37:09.532Z,7.40
2019-03-11T02:39:38.911Z,7.52
2019-03-11T02:42:08.429Z,7.50
2019-03-11T02:44:37.809Z,8.77
2019-03-11T02:47:07.193Z,8.00
2019-03-11T02:49:36.505Z,8.54
2019-03-11T02:52:05.869Z,8.61
2019-03-11T02:54:35.204Z,7.53
2019-03-11T02:57:04.622Z,7.94
2019-03-11T02:59:33.995Z,7.69
2019-03-11T03:02:12.468Z,8.25
2019-03-11T03:04:45.270Z,7.89
2019-03-11T03:07:14.605Z,7.77
2019-03-11T03:09:43.949Z,7.97
2019-03-11T03:12:13.346Z,8.30
2019-03-11T03:14:42.710Z,8.59
2019-03-11T03:17:12.063Z,8.58
2019-03-11T03:19:41.452Z,8.62
2019-03-11T03:22:10.765Z,8.10
2019-03-11T03:24:40.121Z,8.04
2019-03-11T03:27:09.457Z,7.80
2019-03-11T03:29:38.793Z,7.98
2019-03-11T03:32:08.181Z,8.54
2019-03-11T03:34:37.559Z,7.08
2019-03-11T03:37:06.991Z,8.27
2019-03-11T03:39:36.424Z,7.74
2019-03-11T03:42:05.924Z,7.86
2019-03-11T03:44:35.256Z,8.52
2019-03-11T03:47:04.771Z,8.51
2019-03-11T03:49:34.114Z,8.55
2019-03-11T03:52:03.472Z,8.09
2019-03-11T03:54:32.916Z,8.07
2019-03-11T03:57:02.286Z,7.74
2019-03-11T03:59:31.640Z,8.17
2019-03-11T04:02:01.009Z,8.75
2019-03-11T04:04:30.357Z,8.56
2019-03-11T04:06:59.684Z,8.43
2019-03-11T04:09:29.042Z,8.65
2019-03-11T04:11:58.433Z,8.59
2019-03-11T04:14:27.786Z,8.69
2019-03-11T04:16:57.159Z,8.63
2019-03-11T04:19:29.322Z,8.15
2019-03-11T04:21:57.781Z,7.87
2019-03-11T04:24:27.472Z,8.53
2019-03-11T04:26:56.833Z,8.71
2019-03-11T04:29:26.188Z,8.71
2019-03-11T04:31:55.664Z,8.71
2019-03-11T04:34:25.033Z,8.90
2019-03-11T04:36:54.449Z,8.41
2019-03-11T04:39:23.803Z,8.23
2019-03-11T04:41:53.138Z,8.21
2019-03-11T04:44:22.532Z,8.30
2019-03-11T04:46:52.008Z,8.59
2019-03-11T04:49:21.342Z,8.55
2019-03-11T04:51:50.751Z,8.45
2019-03-11T04:54:20.113Z,7.80
2019-03-11T04:56:49.549Z,8.15
2019-03-11T04:59:19.056Z,8.10
2019-03-11T05:01:48.536Z,8.08
2019-03-11T05:04:18.074Z,7.74
2019-03-11T05:06:47.562Z,8.43
2019-03-11T05:09:17.044Z,7.73
2019-03-11T05:11:46.519Z,7.60
2019-03-11T05:14:16.019Z,8.08
2019-03-11T05:16:45.521Z,8.35
2019-03-11T05:19:15.022Z,8.45
2019-03-11T05:21:44.500Z,8.44
2019-03-11T05:24:13.974Z,8.53
2019-03-11T05:26:43.531Z,8.11
2019-03-11T05:29:13.036Z,8.10
2019-03-11T05:31:42.584Z,8.31
2019-03-11T05:34:12.075Z,7.95
2019-03-11T05:36:41.634Z,8.55
2019-03-11T05:39:11.153Z,7.85
2019-03-11T05:41:40.605Z,8.05
2019-03-11T05:44:10.099Z,7.02
2019-03-11T05:46:39.611Z,7.31
2019-03-11T05:49:09.106Z,7.77
2019-03-11T05:51:38.623Z,6.89
2019-03-11T05:54:08.205Z,6.60
2019-03-11T05:56:37.691Z,7.04
2019-03-11T05:59:07.159Z,7.71
2019-03-11T06:01:36.734Z,7.44
2019-03-11T06:04:06.294Z,7.49
2019-03-11T06:06:35.868Z,7.68
2019-03-11T06:09:06.928Z,7.69
2019-03-11T06:11:36.401Z,7.18
2019-03-11T06:14:06.082Z,6.99
2019-03-11T06:16:35.793Z,7.29
2019-03-11T06:19:05.383Z,7.13
2019-03-11T06:21:52.216Z,7.44
2019-03-11T06:24:21.699Z,7.14
2019-03-11T06:26:51.186Z,7.12
2019-03-11T06:29:30.047Z,7.44
2019-03-11T06:31:51.922Z,7.42
2019-03-11T06:34:21.401Z,7.49
2019-03-11T06:36:50.889Z,7.13
2019-03-11T06:39:20.368Z,7.78
2019-03-11T06:41:49.838Z,7.94
2019-03-11T06:44:19.343Z,7.58
2019-03-11T06:46:48.803Z,7.65
2019-03-11T06:49:18.295Z,8.35
2019-03-11T06:51:47.779Z,8.06
2019-03-11T06:54:17.259Z,8.14
2019-03-11T06:56:46.827Z,7.52
2019-03-11T06:59:16.300Z,7.64
2019-03-11T07:01:45.786Z,8.17
2019-03-11T07:04:15.286Z,8.24
2019-03-11T07:06:44.769Z,7.94
2019-03-11T07:09:14.282Z,7.95
2019-03-11T07:11:43.800Z,7.74
2019-03-11T07:14:13.255Z,7.69
2019-03-11T07:16:42.758Z,7.90
2019-03-11T07:19:12.251Z,7.34
2019-03-11T07:21:41.723Z,7.69
2019-03-11T07:24:11.199Z,7.45
2019-03-11T07:26:40.790Z,7.42
2019-03-11T07:29:10.274Z,7.57
2019-03-11T07:31:39.745Z,7.57
2019-03-11T07:34:09.203Z,7.62
2019-03-11T07:36:38.751Z,7.92
2019-03-11T07:39:08.293Z,7.89
2019-03-11T07:41:37.797Z,7.30
2019-03-11T07:44:07.250Z,7.56
2019-03-11T07:46:36.726Z,7.37
2019-03-11T07:49:06.316Z,7.73
2019-03-11T07:51:36.261Z,10.11
2019-03-11T07:54:05.836Z,10.49
2019-03-11T07:56:35.472Z,10.39
2019-03-11T07:59:05.130Z,10.69
2019-03-11T08:01:34.600Z,10.73
2019-03-11T08:04:04.100Z,10.73
2019-03-11T08:06:33.585Z,10.82
2019-03-11T08:09:03.636Z,10.85
2019-03-11T08:11:33.355Z,11.00
2019-03-11T08:14:03.028Z,11.00
2019-03-11T08:16:32.509Z,10.85
2019-03-11T08:19:03.162Z,10.87
2019-03-11T08:21:32.640Z,10.71
2019-03-11T08:24:02.126Z,10.19
2019-03-11T08:26:31.654Z,10.27
2019-03-11T08:29:01.123Z,9.99
2019-03-11T08:31:30.689Z,9.73
2019-03-11T08:34:00.224Z,10.06
2019-03-11T08:36:29.729Z,9.72
2019-03-11T08:38:59.232Z,10.11
2019-03-11T08:41:29.865Z,9.83
2019-03-11T08:43:59.322Z,9.84
2019-03-11T08:46:28.805Z,8.99
2019-03-11T08:48:58.289Z,8.47
2019-03-11T08:51:29.487Z,9.30
2019-03-11T08:53:59.271Z,8.58
2019-03-11T08:56:28.739Z,9.82
2019-03-11T08:58:58.316Z,9.25
2019-03-11T09:01:29.366Z,10.34
2019-03-11T09:03:58.952Z,10.65
2019-03-11T09:06:28.477Z,10.33
2019-03-11T09:08:57.990Z,10.41
2019-03-11T09:11:27.741Z,10.47
2019-03-11T09:13:57.211Z,10.70
2019-03-11T09:16:26.801Z,10.04
2019-03-11T09:18:56.361Z,10.14
2019-03-11T09:21:25.864Z,9.86
2019-03-11T09:23:55.336Z,10.23
2019-03-11T09:26:24.882Z,10.78
2019-03-11T09:28:54.449Z,10.43
2019-03-11T09:31:41.416Z,10.34
2019-03-11T09:34:10.980Z,10.19
2019-03-11T09:36:40.556Z,9.36
2019-03-11T09:39:11.626Z,9.18
2019-03-11T09:41:41.179Z,8.77
2019-03-11T09:44:10.729Z,8.32
2019-03-11T09:46:40.247Z,9.27
2019-03-11T09:49:09.727Z,8.59
2019-03-11T09:51:39.228Z,8.48
2019-03-11T09:54:08.781Z,8.18
2019-03-11T09:56:43.124Z,8.08
2019-03-11T09:59:09.737Z,7.83
2019-03-11T10:01:39.199Z,8.25
2019-03-11T10:04:08.677Z,8.16
2019-03-11T10:06:38.337Z,8.47
2019-03-11T10:09:08.455Z,8.48
2019-03-11T10:11:37.964Z,8.60
2019-03-11T10:14:07.413Z,9.21
2019-03-11T10:16:36.994Z,9.42
2019-03-11T10:19:06.521Z,9.85
2019-03-11T10:21:36.033Z,10.16
2019-03-11T10:24:05.600Z,10.07
2019-03-11T10:26:35.076Z,10.83
2019-03-11T10:29:04.581Z,10.78
2019-03-11T10:31:34.060Z,10.63
2019-03-11T10:34:03.543Z,11.14
2019-03-11T10:36:33.011Z,11.20
2019-03-11T10:39:02.516Z,11.27
2019-03-11T10:41:31.965Z,11.69
2019-03-11T10:44:01.518Z,11.83
2019-03-11T10:46:31.015Z,11.97
2019-03-11T10:49:00.464Z,11.97
2019-03-11T10:51:29.929Z,11.98
2019-03-11T10:53:59.538Z,12.07
2019-03-11T10:56:29.017Z,12.31
2019-03-11T10:58:58.504Z,12.10
2019-03-11T11:01:27.969Z,12.02
2019-03-11T11:03:57.430Z,11.67
2019-03-11T11:06:26.878Z,11.42
2019-03-11T11:08:56.440Z,11.62
2019-03-11T11:11:26.000Z,11.84
2019-03-11T11:13:55.469Z,12.02
2019-03-11T11:16:25.056Z,11.54
2019-03-11T11:18:54.535Z,11.44
2019-03-11T11:21:24.032Z,11.38
2019-03-11T11:23:53.501Z,11.56
2019-03-11T11:26:22.948Z,11.55
2019-03-11T11:28:52.414Z,11.70
2019-03-11T11:31:21.898Z,11.60
2019-03-11T11:33:51.378Z,11.53
2019-03-11T11:36:20.948Z,11.65
2019-03-11T11:38:50.425Z,11.94
2019-03-11T11:41:19.881Z,12.15
2019-03-11T11:43:49.379Z,12.36
2019-03-11T11:46:18.852Z,13.06
2019-03-11T11:48:48.365Z,12.86
2019-03-11T11:51:17.828Z,12.74
2019-03-11T11:53:47.393Z,12.77
2019-03-11T11:56:16.842Z,12.86
2019-03-11T11:58:46.316Z,12.76
2019-03-11T12:01:15.751Z,12.68
2019-03-11T12:03:45.223Z,12.57
2019-03-11T12:06:14.767Z,12.49
2019-03-11T12:08:44.268Z,12.40
2019-03-11T12:11:13.756Z,12.64
2019-03-11T12:13:43.236Z,12.56
2019-03-11T12:16:12.710Z,12.70
2019-03-11T12:18:42.233Z,12.83
2019-03-11T12:21:11.698Z,12.80
2019-03-11T12:23:46.313Z,12.75
2019-03-11T12:26:12.358Z,12.75
2019-03-11T12:28:41.829Z,12.82
2019-03-11T12:31:11.372Z,12.76
2019-03-11T12:33:40.852Z,12.70
2019-03-11T12:36:10.309Z,12.71
2019-03-11T12:38:39.875Z,12.94
2019-03-11T12:41:09.410Z,13.08
2019-03-11T12:43:38.862Z,13.40
2019-03-11T12:46:08.409Z,15.09
2019-03-11T12:48:37.871Z,14.93
2019-03-11T12:51:07.350Z,14.65
2019-03-11T12:53:36.793Z,14.10
2019-03-11T12:56:06.246Z,13.98
2019-03-11T12:58:41.545Z,14.44
2019-03-11T13:01:06.895Z,15.11
2019-03-11T13:03:36.364Z,15.00
2019-03-11T13:06:05.916Z,15.20
2019-03-11T13:08:35.381Z,15.15
2019-03-11T13:11:04.941Z,15.21
2019-03-11T13:13:34.412Z,14.62
2019-03-11T13:16:03.944Z,14.18
2019-03-11T13:18:44.001Z,14.02
2019-03-11T13:21:16.806Z,13.88
2019-03-11T13:23:46.382Z,13.81
2019-03-11T13:26:15.939Z,13.72
2019-03-11T13:28:45.465Z,13.71
2019-03-11T13:31:14.942Z,13.74
2019-03-11T13:33:44.386Z,13.78
2019-03-11T13:36:13.972Z,13.88
2019-03-11T13:38:43.426Z,13.87
2019-03-11T13:41:12.975Z,13.87
2019-03-11T13:43:42.433Z,13.92
2019-03-11T13:46:11.996Z,13.87
2019-03-11T13:48:41.549Z,13.92
2019-03-11T13:51:11.370Z,13.88
2019-03-11T13:53:41.108Z,13.73
2019-03-11T13:56:10.657Z,13.45
2019-03-11T13:58:40.118Z,13.71
2019-03-11T14:01:09.661Z,13.78
2019-03-11T14:03:39.177Z,13.94
2019-03-11T14:06:08.669Z,14.01
2019-03-11T14:08:38.154Z,14.82
2019-03-11T14:11:07.059Z,16.07
2019-03-11T14:13:36.596Z,17.21
2019-03-11T14:16:06.121Z,16.04
2019-03-11T14:18:35.585Z,16.79
2019-03-11T14:21:05.072Z,17.25
2019-03-11T14:23:34.557Z,16.40
2019-03-11T14:26:04.127Z,16.56
2019-03-11T14:28:33.598Z,16.83
2019-03-11T14:31:03.157Z,17.28
2019-03-11T14:33:32.729Z,16.91
2019-03-11T14:36:02.225Z,17.35
2019-03-11T14:38:31.695Z,16.91
2019-03-11T14:41:01.248Z,16.28
2019-03-11T14:43:30.720Z,15.62
2019-03-11T14:46:00.178Z,15.26
2019-03-11T14:48:29.627Z,14.92
2019-03-11T14:50:59.093Z,13.89
2019-03-11T14:53:28.627Z,12.96
2019-03-11T14:55:58.085Z,12.93
2019-03-11T14:58:29.589Z,13.33
2019-03-11T15:00:58.745Z,13.34
2019-03-11T15:03:28.227Z,12.90
2019-03-11T15:05:57.704Z,12.08
2019-03-11T15:08:27.134Z,12.28
2019-03-11T15:10:56.938Z,11.85
2019-03-11T15:13:26.536Z,12.03
2019-03-11T15:15:56.070Z,12.14
2019-03-11T15:18:25.650Z,12.20
2019-03-11T15:20:55.152Z,12.06
2019-03-11T15:23:24.631Z,11.97
2019-03-11T15:25:54.116Z,11.68
2019-03-11T15:28:23.659Z,11.76
2019-03-11T15:30:53.108Z,12.02
2019-03-11T15:33:22.635Z,11.38
2019-03-11T15:35:52.415Z,10.53
2019-03-11T15:38:22.003Z,10.19
2019-03-11T15:40:51.465Z,11.25
2019-03-11T15:43:20.936Z,11.37
2019-03-11T15:45:50.453Z,11.87
2019-03-11T15:48:19.906Z,12.13
2019-03-11T15:50:49.394Z,12.35
2019-03-11T15:53:18.993Z,12.64
2019-03-11T15:55:48.493Z,12.94
2019-03-11T15:58:17.959Z,13.07
2019-03-11T16:00:47.505Z,13.05
2019-03-11T16:03:17.061Z,12.93
2019-03-11T16:05:46.594Z,12.86
2019-03-11T16:08:16.101Z,11.71
2019-03-11T16:10:45.671Z,11.56
2019-03-11T16:13:15.148Z,11.06
2019-03-11T16:15:44.762Z,11.17
2019-03-11T16:18:14.246Z,10.75
2019-03-11T16:20:43.828Z,10.27
2019-03-11T16:23:13.290Z,11.12
2019-03-11T16:25:42.751Z,10.10
2019-03-11T16:28:12.236Z,10.11
2019-03-11T16:30:41.764Z,10.75
2019-03-11T16:33:11.241Z,10.45
2019-03-11T16:35:40.742Z,10.65
2019-03-11T16:38:11.840Z,10.81
2019-03-11T16:40:41.379Z,11.19
2019-03-11T16:43:10.939Z,10.88
2019-03-11T16:45:40.427Z,11.04
2019-03-11T16:48:09.901Z,11.50
2019-03-11T16:50:39.453Z,10.89
2019-03-11T16:53:08.933Z,10.41
2019-03-11T16:55:39.341Z,10.27
2019-03-11T16:58:08.857Z,9.78
2019-03-11T17:00:39.147Z,9.91
2019-03-11T17:03:08.761Z,9.50
2019-03-11T17:05:38.274Z,9.12
2019-03-11T17:08:07.877Z,9.31
2019-03-11T17:10:37.416Z,8.97
2019-03-11T17:13:07.003Z,9.20
2019-03-11T17:15:36.520Z,9.43
2019-03-11T17:18:06.103Z,9.06
2019-03-11T17:20:35.639Z,8.53
2019-03-11T17:23:05.182Z,8.61
2019-03-11T17:25:34.633Z,8.02
2019-03-11T17:28:04.122Z,8.72
2019-03-11T17:30:33.571Z,8.06
2019-03-11T17:33:03.309Z,8.29
2019-03-11T17:35:32.778Z,8.33
2019-03-11T17:38:02.268Z,8.36
2019-03-11T17:40:31.769Z,7.91
2019-03-11T17:43:01.287Z,7.98
2019-03-11T17:45:30.681Z,8.22
2019-03-11T17:48:00.214Z,7.44
2019-03-11T17:50:29.751Z,7.38
2019-03-11T17:52:59.160Z,6.83
2019-03-11T17:55:28.659Z,7.02
2019-03-11T17:57:58.102Z,7.07
2019-03-11T18:00:29.038Z,7.24
2019-03-11T18:02:58.538Z,7.44
2019-03-11T18:05:28.284Z,8.23
2019-03-11T18:07:57.776Z,8.29
2019-03-11T18:10:27.310Z,7.25
2019-03-11T18:12:56.835Z,7.78
2019-03-11T18:15:26.287Z,7.61
2019-03-11T18:17:55.780Z,6.79
2019-03-11T18:20:25.228Z,7.42
2019-03-11T18:22:54.780Z,7.33
2019-03-11T18:25:24.242Z,7.39
2019-03-11T18:27:53.710Z,7.37
2019-03-11T18:30:23.349Z,7.09
2019-03-11T18:32:52.926Z,7.28
2019-03-11T18:35:22.433Z,7.95
2019-03-11T18:38:03.012Z,7.19
2019-03-11T18:40:23.182Z,7.64
2019-03-11T18:42:52.740Z,6.71
2019-03-11T18:45:22.335Z,7.27
2019-03-11T18:47:51.822Z,7.17
2019-03-11T18:50:21.301Z,7.78
2019-03-11T18:52:50.846Z,6.74
2019-03-11T18:55:20.429Z,6.92
2019-03-11T18:57:49.958Z,6.91
2019-03-11T19:00:19.613Z,7.45
2019-03-11T19:02:49.391Z,7.31
2019-03-11T19:05:18.868Z,7.23
2019-03-11T19:07:48.377Z,6.73
2019-03-11T19:10:18.237Z,6.36
2019-03-11T19:12:47.739Z,6.55
2019-03-11T19:15:17.558Z,7.14
2019-03-11T19:17:47.185Z,8.02
2019-03-11T19:20:17.714Z,8.06
2019-03-11T19:22:47.197Z,6.81
2019-03-11T19:25:16.982Z,7.30
2019-03-11T19:27:46.506Z,7.42
2019-03-11T19:30:17.853Z,7.25
2019-03-11T19:32:47.543Z,8.55
2019-03-11T19:35:17.749Z,9.56
2019-03-11T19:37:47.262Z,8.79
2019-03-11T19:40:17.534Z,7.91
2019-03-11T19:45:29.894Z,7.30
2019-03-11T19:47:59.323Z,7.06
2019-03-11T19:50:28.824Z,7.40
2019-03-11T19:52:59.623Z,7.32
2019-03-11T19:55:29.097Z,7.05
2019-03-11T19:57:58.527Z,6.91
2019-03-11T20:00:27.983Z,7.19
2019-03-11T20:02:57.433Z,7.27
2019-03-11T20:05:26.826Z,6.78
2019-03-11T20:07:56.327Z,6.47
2019-03-11T20:10:25.747Z,7.02
2019-03-11T20:12:55.266Z,6.70
2019-03-11T20:15:24.780Z,6.67
2019-03-11T20:17:54.202Z,6.38
2019-03-11T20:20:23.642Z,6.88
2019-03-11T20:22:53.406Z,6.47
2019-03-11T20:25:25.268Z,6.64
2019-03-11T20:27:54.674Z,6.75
2019-03-11T20:30:24.340Z,6.44
2019-03-11T20:32:53.752Z,6.66
2019-03-11T20:35:23.540Z,6.47
2019-03-11T20:37:53.122Z,6.31
2019-03-11T20:40:23.104Z,6.42
2019-03-11T20:42:52.614Z,5.99
2019-03-11T20:45:26.422Z,6.24
2019-03-11T20:47:55.881Z,5.90
2019-03-11T20:50:25.341Z,6.35
2019-03-11T20:52:54.769Z,6.24
2019-03-11T20:55:24.281Z,6.43
2019-03-11T20:57:53.796Z,5.99
2019-03-11T21:00:23.285Z,5.93
2019-03-11T21:02:52.829Z,5.72
2019-03-11T21:05:24.722Z,6.24
2019-03-11T21:07:54.130Z,6.09
2019-03-11T21:10:23.636Z,6.12
2019-03-11T21:12:53.055Z,6.88
2019-03-11T21:15:22.417Z,6.51
2019-03-11T21:17:51.902Z,6.18
2019-03-11T21:20:21.322Z,7.20
2019-03-11T21:22:50.864Z,5.73
2019-03-11T21:25:20.372Z,6.30
2019-03-11T21:27:49.999Z,5.97
2019-03-11T21:30:20.293Z,6.24
2019-03-11T21:32:49.825Z,6.32
2019-03-11T21:35:19.737Z,6.48
2019-03-11T21:37:49.552Z,5.88
2019-03-11T21:40:19.161Z,5.69
2019-03-11T21:42:48.551Z,5.45
2019-03-11T21:45:18.009Z,5.75
2019-03-11T21:47:50.624Z,5.64
2019-03-11T21:50:20.127Z,5.73
2019-03-11T21:52:49.826Z,5.84
2019-03-11T21:55:19.301Z,5.50
2019-03-11T21:57:48.904Z,6.33
2019-03-11T22:00:32.868Z,6.07
2019-03-11T22:02:51.832Z,6.34
2019-03-11T22:05:21.462Z,6.50
2019-03-11T22:07:50.896Z,5.84
2019-03-11T22:10:20.427Z,6.48
2019-03-11T22:12:49.901Z,5.74
2019-03-11T22:15:19.260Z,5.94
2019-03-11T22:17:48.831Z,5.90
2019-03-11T22:20:18.423Z,5.55
2019-03-11T22:22:47.944Z,5.66
2019-03-11T22:25:17.343Z,6.09
2019-03-11T22:27:46.869Z,5.71
2019-03-11T22:30:18.021Z,6.45
2019-03-11T22:32:47.434Z,5.66
2019-03-11T22:35:16.935Z,5.93
2019-03-11T22:37:46.555Z,5.99
2019-03-11T22:40:16.256Z,6.34
2019-03-11T22:42:45.763Z,6.38
2019-03-11T22:45:17.233Z,6.73
2019-03-11T22:47:46.589Z,6.51
2019-03-11T22:50:17.852Z,6.33
2019-03-11T22:52:47.368Z,5.88
2019-03-11T22:55:17.541Z,6.74
2019-03-11T22:57:46.981Z,6.64
2019-03-11T23:00:28.949Z,6.20
2019-03-11T23:02:58.500Z,6.22
2019-03-11T23:05:27.880Z,6.14
2019-03-11T23:07:57.284Z,6.85
2019-03-11T23:10:26.766Z,7.29
2019-03-11T23:12:56.215Z,6.73
2019-03-11T23:15:25.603Z,6.94
2019-03-11T23:17:54.990Z,6.11
2019-03-11T23:20:24.708Z,5.99
2019-03-11T23:22:54.084Z,6.36
2019-03-11T23:25:23.572Z,6.07
2019-03-11T23:27:53.013Z,6.01
2019-03-11T23:30:22.564Z,6.16
2019-03-11T23:32:51.946Z,6.39
2019-03-11T23:35:21.478Z,7.02
2019-03-11T23:37:50.907Z,6.20
2019-03-11T23:40:20.358Z,7.18
2019-03-11T23:42:49.688Z,7.50
2019-03-11T23:45:19.150Z,8.18
2019-03-11T23:47:48.590Z,7.53
2019-03-11T23:50:19.559Z,7.76
2019-03-11T23:52:49.142Z,9.34
2019-03-11T23:55:18.538Z,8.81
2019-03-11T23:57:48.042Z,8.78
